Tiempo atmosférico en la estación meteorológica de Son Servera, Illes Balears (28 m.)



Fecha
DESCASC
Temp. máxima en grados centígrados (hora)
DESCASC
Temp. mínima en grados centígrados (hora)
DESCASC
Temp. media en grados centígrados
DESCASC
Racha de viento máxima en m/sg (hora)
DESCASC
Velocidad máxima media en intervalos de 10 minutos(hora)
DESCASC
Precipitaciones diarias en mm
DESCASC
Precipitaciones de 00:00 a 06:00 en mm
DESCASC
Precipitaciones de 06:00 a 12:00 en mm
DESCASC
Precipitaciones de 12:00 a 18:00 en mm
DESCASC
Precipitaciones de 18:00 a 24:00 en mm
DESCASC
05-04-2020 17.4 (17:00) 6.9 (05:50) 12.1 5.56 (13:20) 3.33 (11:10) 0 0 0 0 0
04-04-2020 19 (11:00) 6.4 (06:10) 12.7 6.39 (14:40) 3.89 (12:10) 0 0 0 0 0
03-04-2020 16.3 (16:40) 8.5 (23:59) 12.4 13.33 (04:40) 6.94 (09:20) 8 7.8 0.2 0 0
02-04-2020 20.1 (10:30) 10.9 (00:00) 15.5 8.61 (23:10) 4.72 (23:00) 8.4 0 0.6 2 5.8
01-04-2020 19.7 (17:20) 14.2 (00:00) 17 10.28 (00:10) 5.28 (00:20) 0 0 0 0 0
31-03-2020 16.9 (14:20) 13.9 (00:00) 15.4 11.39 (11:10) 6.11 (10:40) 3.4 0 0 3.4 0
30-03-2020 17.4 (14:50) 8.6 (00:00) 13 10.28 (15:20) 6.39 (15:20) 0 0 0 0 0
29-03-2020 21.7 (13:10) 7.7 (00:00) 14.7 8.06 (22:20) 5.28 (21:50) 0 0 0 0 0
28-03-2020 16.7 (14:20) 8.3 (00:00) 12.5 6.94 (12:40) 4.72 (12:40) 2.4 2 0.2 0.2 0
27-03-2020 15.6 (13:50) 4.8 (00:00) 10.2 9.17 (19:10) 5.56 (19:20) 3.6 0 0 0 3.6
26-03-2020 13.9 (08:30) 3.5 (00:00) 8.7 10 (20:10) 5.56 (23:40) 53 0 14.6 16.2 22.2
25-03-2020 14.3 (12:00) 4.7 (00:00) 9.5 11.11 (02:20) 6.67 (02:20) 0 0 0 0 0
24-03-2020 15.3 (12:20) 10.9 (00:00) 13.1 12.22 (19:30) 6.67 (09:20) 0 0 0 0 0
23-03-2020 18.4 (13:40) 11.2 (00:00) 14.8 8.33 (23:50) 5 (23:50) 0.2 0 0.2 0 0
22-03-2020 16.8 (14:20) 11.5 (23:59) 14.1 8.06 (13:40) 4.17 (13:40) 1.8 1.2 0.2 0.4 0
21-03-2020 18.7 (13:10) 13.4 (00:00) 16.1 8.61 (00:30) 4.72 (04:30) 0 0 0 0 0
20-03-2020 18 (12:50) 12.4 (00:00) 15.2 10 (12:40) 5.56 (10:30) 0 0 0 0 0
19-03-2020 17.4 (11:00) 9.2 (00:00) 13.3 6.67 (15:10) 4.72 (12:40) 0 0 0 0 0
18-03-2020 18 (14:00) 11.3 (00:00) 14.7 8.61 (01:30) 4.72 (01:30) 0 0 0 0 0
17-03-2020 16.5 (11:30) 14.5 (00:00) 15.5 10.83 (20:20) 5.56 (14:30) 0.2 0.2 0 0 0
16-03-2020 16 (13:20) 13.4 (00:00) 14.7 9.72 (10:20) 5.28 (10:30) 0.6 0 0.6 0 0
15-03-2020 18.1 (12:00) 7.4 (00:00) 12.8 5.83 (22:10) 3.61 (14:00) 0 0 0 0 0
14-03-2020 17.6 (10:50) 8.8 (00:00) 13.2 6.39 (09:20) 3.89 (09:20) 1 1 0 0 0
13-03-2020 19 (13:10) 9.1 (01:40) 14.1 10.28 (12:00) 6.11 (13:20) 0 0 0 0 0
12-03-2020 21.2 (14:00) 7.8 (00:00) 14.5 6.39 (13:10) 4.17 (13:10) 0 0 0 0 0
11-03-2020 19.8 (15:10) 8.4 (00:00) 14.1 7.78 (02:00) 4.72 (04:20) 0 0 0 0 0
10-03-2020 18.7 (12:20) 11 (00:00) 14.9 10.83 (01:10) 6.67 (01:10) 0 0 0 0 0

Gráficas

Temp. máximas Temp. mínimas Temp. medias Precipitaciones Rachas de viento máximas Velocidades máximas media en intervalos de 10 minutos

Datos horarios

Fecha y hora oficial Temperatura (ºC) Velocidad del viento (km/h) Dirección del viento Racha (km/h) Dirección de racha Precipitación (mm) Presión (hPa) Tendencia (hPa) Humedad (%)
2020-04-08 23:00:00 12.4 5 Norte 9 Norte 0 -- -- 89
2020-04-08 22:00:00 13.3 4 Noroeste 6 Noroeste 0 -- -- 88
2020-04-08 21:00:00 13.8 0 Calma 5 Sur 0 -- -- 84
2020-04-08 20:00:00 15.9 2 Sur 12 Sur 0 -- -- 76
2020-04-08 19:00:00 17 8 Sur 14 Sudeste 0 -- -- 73
2020-04-08 18:00:00 17.6 8 Sur 15 Sur 0 -- -- 73
2020-04-08 17:00:00 18.2 8 Sur 18 Sur 0 -- -- 74
2020-04-08 16:00:00 18.3 8 Sur 18 Sur 0 -- -- 75
2020-04-08 15:00:00 18.5 11 Sudeste 20 Sur 0 -- -- 73
2020-04-08 14:00:00 18.1 9 Sur 19 Sur 0 -- -- 72
2020-04-08 13:00:00 18.3 6 Sur 15 Sudeste 0 -- -- 73
2020-04-08 12:00:00 17.5 8 Sudeste 15 Sudeste 0 -- -- 76
2020-04-08 11:00:00 16.7 9 Sur 15 Sudeste 0 -- -- 77
2020-04-08 10:00:00 18 10 Sudeste 16 Sudeste 0 -- -- 70
2020-04-08 09:00:00 19.2 3 Norte 9 Noroeste 0 -- -- 70
2020-04-08 08:00:00 12.7 5 Norte 10 Noroeste 0 -- -- 85
2020-04-08 07:00:00 11.5 6 Noroeste 12 Noroeste 0 -- -- 83
2020-04-08 06:00:00 11.2 7 Noroeste 11 Noroeste 0 -- -- 81
2020-04-08 05:00:00 10.9 6 Noroeste 10 Noroeste 0 -- -- 78
2020-04-08 04:00:00 11.1 6 Noroeste 11 Noroeste 0 -- -- 77
2020-04-08 03:00:00 11.6 6 Noroeste 11 Noroeste 0 -- -- 76
2020-04-08 02:00:00 12 6 Noroeste 11 Noroeste 0 -- -- 79
2020-04-08 01:00:00 11.7 7 Noroeste 10 Noroeste 0 -- -- 84
2020-04-08 00:00:00 10.9 8 Noroeste 12 Noroeste 0 -- -- 85
2020-04-07 23:00:00 11 8 Noroeste 10 Noroeste 0 -- -- 84
2020-04-07 22:00:00 11.7 6 Noroeste 9 Noroeste 0 -- -- 80
2020-04-07 21:00:00 13.3 4 Noroeste 8 Sudeste 0 -- -- 73
2020-04-07 20:00:00 15.4 5 Sudeste 9 Sudeste 0 -- -- 66
2020-04-07 19:00:00 16.4 5 Sur 12 Sudeste 0 -- -- 60
2020-04-07 18:00:00 17.1 7 Sudeste 12 Sudeste 0 -- -- 59
2020-04-07 17:00:00 16.8 7 Sudeste 15 Sur 0 -- -- 63
2020-04-07 16:00:00 17.9 7 Sur 17 Sudeste 0 -- -- 59
2020-04-07 15:00:00 17.4 10 Sudeste 21 Sudeste 0 -- -- 63
2020-04-07 14:00:00 18.1 12 Sudeste 21 Sudeste 0 -- -- 60
2020-04-07 13:00:00 17.7 12 Sudeste 18 Sudeste 0 -- -- 62
2020-04-07 12:00:00 18 11 Sudeste 18 Sudeste 0 -- -- 62
2020-04-07 11:00:00 17.4 9 Sudeste 16 Sudeste 0 -- -- 64
2020-04-07 10:00:00 17.1 8 Sudeste 14 Este 0 -- -- 68
2020-04-07 09:00:00 14.2 5 Noroeste 12 Noroeste 0 -- -- 86
2020-04-07 08:00:00 10.6 8 Noroeste 12 Noroeste 0 -- -- 91
2020-04-07 07:00:00 9.8 6 Norte 12 Noroeste 0 -- -- 91
2020-04-07 06:00:00 9.5 7 Noroeste 10 Noroeste 0 -- -- 90
2020-04-07 05:00:00 9.8 8 Noroeste 12 Noroeste 0 -- -- 90
2020-04-07 04:00:00 9.5 8 Noroeste 12 Norte 0 -- -- 90
2020-04-07 03:00:00 9.3 9 Noroeste 13 Noroeste 0 -- -- 90
2020-04-07 02:00:00 9 9 Noroeste 13 Noroeste 0 -- -- 90
2020-04-07 01:00:00 9.5 7 Noroeste 11 Noroeste 0 -- -- 88
2020-04-07 00:00:00 10 8 Norte 11 Noroeste 0 -- -- 87
2020-04-06 23:00:00 10.3 8 Noroeste 13 Noroeste 0 -- -- 84
2020-04-06 22:00:00 11.1 8 Norte 10 Noroeste 0 -- -- 81
2020-04-06 21:00:00 12.5 4 Norte 5 Noroeste 0 -- -- 74
2020-04-06 20:00:00 15 3 Sur 13 Sur 0 -- -- 64
2020-04-06 19:00:00 16.8 8 Sur 15 Sur 0 -- -- 56
2020-04-06 18:00:00 17.3 10 Sur 17 Sur 0 -- -- 55
2020-04-06 17:00:00 17.7 10 Sur 18 Sur 0 -- -- 56
2020-04-06 16:00:00 18 10 Sur 21 Sudeste 0 -- -- 54
2020-04-06 15:00:00 18 10 Sur 20 Sudeste 0 -- -- 49
2020-04-06 14:00:00 18.2 9 Sur 17 Sudoeste 0 -- -- 55
2020-04-06 13:00:00 18.2 8 Sur 17 Sur 0 -- -- 57
2020-04-06 12:00:00 17.8 8 Sudeste 14 Sur 0 -- -- 62
2020-04-06 11:00:00 17.6 8 Sudeste 14 Sur 0 -- -- 64
2020-04-06 10:00:00 17.2 7 Sudeste 11 Sudeste 0 -- -- 67
2020-04-06 09:00:00 16.5 4 Noroeste 12 Noroeste 0 -- -- 83
2020-04-06 08:00:00 9.4 9 Noroeste 14 Noroeste 0 -- -- 95
2020-04-06 07:00:00 7.9 8 Norte 13 Noroeste 0 -- -- 95
2020-04-06 06:00:00 8.1 9 Noroeste 15 Noroeste 0 -- -- 95
2020-04-06 05:00:00 8.4 8 Noroeste 11 Noroeste 0 -- -- 94
2020-04-06 04:00:00 9.1 8 Noroeste 11 Noroeste 0 -- -- 93
2020-04-06 03:00:00 9.5 9 Noroeste 11 Noroeste 0 -- -- 92
2020-04-06 02:00:00 10.2 8 Noroeste 12 Noroeste 0 -- -- 91
2020-04-06 01:00:00 10.5 7 Noroeste 10 Noroeste 0 -- -- 90
2020-04-06 00:00:00 10.6 8 Noroeste 10 Noroeste 0 -- -- 90
2020-04-05 23:00:00 10.7 6 Noroeste 10 Noroeste 0 -- -- 88
2020-04-05 22:00:00 11.4 5 Noroeste 9 Noroeste 0 -- -- 86
2020-04-05 21:00:00 12.1 4 Noroeste 5 Noroeste 0 -- -- 80
2020-04-05 20:00:00 14.4 4 Sudeste 9 Sur 0 -- -- 71
2020-04-05 19:00:00 15.6 5 Sudeste 16 Sur 0 -- -- 67
2020-04-05 18:00:00 16.2 7 Sur 17 Sudeste 0 -- -- 63
2020-04-05 17:00:00 17.4 9 Sudeste 15 Sudeste 0 -- -- 63
2020-04-05 16:00:00 17 9 Sur 18 Sudeste 0 -- -- 63
2020-04-05 15:00:00 17.1 10 Sur 18 Sudeste 0 -- -- 66
2020-04-05 14:00:00 16.8 10 Sudeste 20 Sudeste 0 -- -- 69
2020-04-05 13:00:00 16.8 8 Sur 17 Sudeste 0 -- -- 70
2020-04-05 12:00:00 17.3 6 Sur 18 Sur 0 -- -- 69
2020-04-05 11:00:00 16.3 9 Sudeste 15 Sudeste 0 -- -- 69
2020-04-05 10:00:00 16.2 6 Sudeste 12 Sudeste 0 -- -- 72
2020-04-05 09:00:00 15.1 4 Noroeste 10 Noroeste 0 -- -- 88
2020-04-05 08:00:00 8.6 8 Noroeste 12 Norte 0 -- -- 96
2020-04-05 07:00:00 7.2 9 Noroeste 12 Noroeste 0 -- -- 95
2020-04-05 06:00:00 6.9 8 Noroeste 11 Noroeste 0 -- -- 95
2020-04-05 05:00:00 7.1 8 Norte 12 Noroeste 0 -- -- 94
2020-04-05 04:00:00 7.4 9 Noroeste 12 Norte 0 -- -- 93
2020-04-05 03:00:00 7.5 9 Noroeste 12 Noroeste 0 -- -- 92
2020-04-05 02:00:00 7.7 9 Noroeste 12 Noroeste 0 -- -- 91
2020-04-05 01:00:00 7.8 8 Noroeste 13 Noroeste 0 -- -- 90
2020-04-05 00:00:00 8.3 8 Noroeste 12 Noroeste 0 -- -- 88
2020-04-04 23:00:00 9.2 7 Noroeste 13 Noroeste 0 -- -- 84
2020-04-04 22:00:00 10.1 9 Noroeste 12 Noroeste 0 -- -- 81
2020-04-04 21:00:00 11.5 7 Noroeste 9 Noroeste 0 -- -- 73
2020-04-04 20:00:00 14.9 3 Este 9 Sudeste 0 -- -- 61
2020-04-04 19:00:00 17.2 6 Sudeste 15 Sudeste 0 -- -- 46
2020-04-04 18:00:00 17.7 10 Sudeste 17 Sur 0 -- -- 43
2020-04-04 17:00:00 18.2 12 Sur 18 Sudeste 0 -- -- 42
2020-04-04 16:00:00 18.2 13 Sudeste 21 Sudeste 0 -- -- 48
2020-04-04 15:00:00 18.4 11 Sudeste 23 Sudeste 0 -- -- 56
2020-04-04 14:00:00 18.3 12 Este 22 Este 0 -- -- 56
2020-04-04 13:00:00 18.3 10 Nordeste 22 Este 0 -- -- 48
2020-04-04 12:00:00 17.8 13 Este 19 Nordeste 0 -- -- 49
2020-04-04 11:00:00 19 5 Norte 17 Nordeste 0 -- -- 50
2020-04-04 10:00:00 17.1 8 Norte 16 Norte 0 -- -- 62
2020-04-04 09:00:00 14.5 5 Norte 9 Norte 0 -- -- 70
2020-04-04 08:00:00 8.6 5 Noroeste 9 Noroeste 0 -- -- 88
2020-04-04 07:00:00 6.5 8 Noroeste 11 Noroeste 0 -- -- 91
2020-04-04 06:00:00 6.5 8 Noroeste 12 Noroeste 0 -- -- 93
2020-04-04 05:00:00 7.1 4 Norte 8 Noroeste 0 -- -- 92
2020-04-04 04:00:00 7.9 5 Norte 10 Noroeste 0 -- -- 91
2020-04-04 03:00:00 8.1 8 Noroeste 10 Noroeste 0 -- -- 91
2020-04-04 02:00:00 8.3 7 Noroeste 12 Noroeste 0 -- -- 90
2020-04-04 01:00:00 8.3 9 Noroeste 14 Norte 0 -- -- 90
2020-04-04 00:00:00 8.5 8 Noroeste 10 Noroeste 0 -- -- 90
2020-04-03 23:00:00 9 7 Noroeste 11 Noroeste 0 -- -- 88
2020-04-03 22:00:00 9.7 7 Noroeste 11 Noroeste 0 -- -- 85
2020-04-03 21:00:00 11 5 Noroeste 10 Nordeste 0 -- -- 75
2020-04-03 20:00:00 13.3 7 Nordeste 16 Norte 0 -- -- 64
2020-04-03 19:00:00 14.8 9 Nordeste 24 Nordeste 0 -- -- 61
2020-04-03 18:00:00 15.6 12 Nordeste 24 Nordeste 0 -- -- 59
2020-04-03 17:00:00 16.1 15 Nordeste 27 Nordeste 0 -- -- 55
2020-04-03 16:00:00 15.8 18 Nordeste 35 Nordeste 0 -- -- 67
2020-04-03 15:00:00 16 18 Nordeste 36 Nordeste 0 -- -- 71
2020-04-03 14:00:00 16.2 20 Nordeste 37 Este 0 -- -- 71
2020-04-03 13:00:00 16.1 21 Nordeste 41 Nordeste 0 -- -- 70
2020-04-03 12:00:00 14.6 23 Nordeste 45 Nordeste 0 -- -- 73
2020-04-03 11:00:00 15.2 23 Nordeste 41 Nordeste 0 -- -- 70
2020-04-03 10:00:00 14.1 22 Nordeste 41 Nordeste 0 -- -- 73
2020-04-03 09:00:00 13.3 21 Nordeste 42 Nordeste 0.2 -- -- 74
2020-04-03 08:00:00 12.7 20 Nordeste 35 Nordeste 0 -- -- 81
2020-04-03 07:00:00 12.2 14 Nordeste 44 Nordeste 0 -- -- 88
2020-04-03 06:00:00 11.4 22 Nordeste 44 Nordeste 1.2 -- -- 87
2020-04-03 05:00:00 12 19 Nordeste 48 Nordeste 0.6 -- -- 92
2020-04-03 04:00:00 12.5 18 Nordeste 37 Nordeste 3.4 -- -- 93
2020-04-03 03:00:00 12.2 18 Este 43 Nordeste 2.6 -- -- 92
2020-04-03 02:00:00 12.2 7 Norte 18 Nordeste 0 -- -- 91
2020-04-03 01:00:00 12.1 9 Norte 29 Norte 0 -- -- 91
2020-04-03 00:00:00 12.3 16 Nordeste 31 Nordeste 0.2 -- -- 92
2020-04-02 23:00:00 12.2 17 Nordeste 28 Nordeste 3.2 -- -- 95
2020-04-02 22:00:00 12.6 10 Nordeste 18 Nordeste 0.8 -- -- 95
2020-04-02 21:00:00 12.6 4 Norte 8 Norte 0 -- -- 93
2020-04-02 20:00:00 13 4 Norte 11 Norte 0.4 -- -- 92
2020-04-02 19:00:00 12.9 4 Norte 18 Norte 1.2 -- -- 91
2020-04-02 18:00:00 13.1 10 Norte 18 Noroeste 1.8 -- -- 90
2020-04-02 17:00:00 14.4 11 Norte 21 Sudeste 0.2 -- -- 79
2020-04-02 16:00:00 16.1 10 Sudeste 24 Sur 0 -- -- 77
2020-04-02 15:00:00 17.3 13 Sudeste 22 Sudeste 0 -- -- 75
2020-04-02 14:00:00 16.9 7 Nordeste 13 Nordeste 0 -- -- 72
2020-04-02 13:00:00 16.7 5 Nordeste 22 Sudeste 0 -- -- 66
2020-04-02 12:00:00 18.1 14 Sudeste 21 Sudeste 0 -- -- 75
2020-04-02 11:00:00 18.4 14 Sur 22 Sur 0 -- -- 72
2020-04-02 10:00:00 17.2 4 Oeste 17 Oeste 0 -- -- 82
2020-04-02 09:00:00 16.6 4 Noroeste 8 Noroeste 0.2 -- -- 93
2020-04-02 08:00:00 12.3 0 Calma 10 Oeste 0.2 -- -- 96
2020-04-02 07:00:00 11.5 0 Calma 8 Noroeste 0.2 -- -- 96
2020-04-02 06:00:00 10.9 5 Norte 12 Oeste 0 -- -- 95
2020-04-02 05:00:00 11 6 Oeste 12 Oeste 0 -- -- 95
2020-04-02 04:00:00 12.1 0 Calma 14 Sudoeste 0 -- -- 93
2020-04-02 03:00:00 13.7 6 Oeste 17 Oeste 0 -- -- 93
2020-04-02 02:00:00 12 2 Norte 6 Sudoeste 0 -- -- 93
2020-04-02 01:00:00 12.3 0 Calma 5 Sudeste 0 -- -- 92
2020-04-02 00:00:00 14.5 2 Oeste 17 Oeste 0 -- -- 87
2020-04-01 23:00:00 14.2 3 Noroeste 13 Sudoeste 0 -- -- 88
2020-04-01 22:00:00 15.1 6 Sudeste 19 Noroeste 0 -- -- 84
2020-04-01 21:00:00 15 4 Norte 19 Oeste 0 -- -- 83
2020-04-01 20:00:00 16.3 14 Oeste 22 Oeste 0 -- -- 74
2020-04-01 19:00:00 17.7 9 Oeste 25 Oeste 0 -- -- 70
2020-04-01 18:00:00 19 10 Oeste 28 Sudoeste 0 -- -- 64
2020-04-01 17:00:00 18.8 16 Sudoeste 28 Sudoeste 0 -- -- 70
2020-04-01 16:00:00 19.5 14 Sudoeste 24 Sudoeste 0 -- -- 70
2020-04-01 15:00:00 18.2 10 Sur 22 Sudeste 0 -- -- 80
2020-04-01 14:00:00 17.2 10 Sudeste 26 Sudeste 0 -- -- 88
2020-04-01 13:00:00 18 13 Sudeste 25 Sudeste 0 -- -- 85
2020-04-01 12:00:00 16.7 14 Sudeste 24 Sudeste 0 -- -- 88
2020-04-01 11:00:00 15.8 12 Sudeste 22 Sudeste 0 -- -- 90
2020-04-01 10:00:00 15.2 14 Sudeste 27 Sudeste 0 -- -- 90
2020-04-01 09:00:00 14.8 13 Sudeste 29 Sudeste 0 -- -- 90
2020-04-01 08:00:00 14.7 15 Sudeste 25 Sudeste 0 -- -- 90
2020-04-01 07:00:00 14.7 13 Sudeste 25 Sudeste 0 -- -- 89
2020-04-01 06:00:00 14.6 14 Sudeste 28 Sudeste 0 -- -- 88
2020-04-01 05:00:00 14.5 14 Sudeste 28 Sudeste 0 -- -- 89
2020-04-01 04:00:00 14.6 14 Sudeste 31 Sudeste 0 -- -- 89
2020-04-01 03:00:00 14.4 17 Sudeste 35 Sudeste 0 -- -- 88
2020-04-01 02:00:00 14.5 16 Sudeste 35 Sudeste 0 -- -- 89
2020-04-01 01:00:00 14.7 15 Sudeste 37 Sudeste 0 -- -- 91
2020-04-01 00:00:00 14.8 17 Sudeste 39 Sudeste 0 -- -- 91
2020-03-31 23:00:00 14.7 19 Sudeste 38 Sudeste 0 -- -- 90
2020-03-31 22:00:00 14.6 18 Sudeste 41 Sudeste 0 -- -- 91
2020-03-31 21:00:00 14.5 21 Sudeste 36 Sudeste 0 -- -- 91
2020-03-31 20:00:00 14.5 18 Sudeste 37 Este 0 -- -- 91
2020-03-31 19:00:00 15 14 Sudeste 32 Sudeste 0 -- -- 90
2020-03-31 18:00:00 15.1 13 Este 32 Este 0 -- -- 90
2020-03-31 17:00:00 14.6 8 Sudeste 23 Sudeste 2 -- -- 93
2020-03-31 16:00:00 15 12 Sudeste 25 Sudeste 1.4 -- -- 91
2020-03-31 15:00:00 15.9 15 Sudeste 31 Sudeste 0 -- -- 82
2020-03-31 14:00:00 16.4 16 Sudeste 33 Sudeste 0 -- -- 79
2020-03-31 13:00:00 16.3 17 Sudeste 35 Sudeste 0 -- -- 79
2020-03-31 12:00:00 15.7 17 Sudeste 41 Sudeste 0 -- -- 82
2020-03-31 11:00:00 16.2 21 Sudeste 39 Sudeste 0 -- -- 77
2020-03-31 10:00:00 15.1 20 Sudeste 37 Sudeste 0 -- -- 82
2020-03-31 09:00:00 14.7 19 Sudeste 37 Sudeste 0 -- -- 84
2020-03-31 08:00:00 14.1 18 Sudeste 33 Este 0 -- -- 86
2020-03-31 07:00:00 14 17 Sudeste 34 Este 0 -- -- 87
2020-03-31 06:00:00 14.1 14 Este 28 Sudeste 0 -- -- 88
2020-03-31 05:00:00 14.1 13 Sudeste 26 Sudeste 0 -- -- 86
2020-03-31 04:00:00 14.2 10 Sudeste 18 Sudeste 0 -- -- 86
2020-03-31 03:00:00 14.2 8 Sudeste 20 Sudeste 0 -- -- 85
2020-03-31 02:00:00 14.1 11 Sudeste 19 Sudeste 0 -- -- 85
2020-03-31 01:00:00 14.1 9 Sudeste 18 Sudeste 0 -- -- 85
2020-03-31 00:00:00 14.1 9 Sudeste 18 Sur 0 -- -- 86
2020-03-30 23:00:00 14 6 Sur 15 Sudeste 0 -- -- 85
2020-03-30 22:00:00 14 8 Sur 15 Sur 0 -- -- 87
2020-03-30 21:00:00 13.6 3 Sur 12 Sur 0 -- -- 87
2020-03-30 20:00:00 14.3 4 Sur 21 Sur 0 -- -- 85
2020-03-30 19:00:00 15.2 12 Sur 27 Sudoeste 0 -- -- 82
2020-03-30 18:00:00 15.5 14 Sudoeste 29 Sudoeste 0 -- -- 80
2020-03-30 17:00:00 16.2 18 Sudoeste 34 Sudoeste 0 -- -- 77
2020-03-30 16:00:00 16.5 20 Sudoeste 37 Sudoeste 0 -- -- 78
2020-03-30 15:00:00 16.8 18 Sudoeste 32 Sudoeste 0 -- -- 77
2020-03-30 14:00:00 16.3 18 Sudoeste 32 Sudoeste 0 -- -- 79
2020-03-30 13:00:00 16.8 12 Sur 22 Sur 0 -- -- 76
2020-03-30 12:00:00 15.6 6 Sur 10 Sur 0 -- -- 86
2020-03-30 11:00:00 14.1 0 Calma 10 Sudeste 0 -- -- 90
2020-03-30 10:00:00 13.6 2 Norte 8 Noroeste 0 -- -- 94
2020-03-30 09:00:00 10.8 5 Norte 9 Noroeste 0 -- -- 94
2020-03-30 08:00:00 9.2 4 Norte 11 Noroeste 0 -- -- 94
2020-03-30 07:00:00 8.9 7 Noroeste 9 Noroeste 0 -- -- 93
2020-03-30 06:00:00 9.1 6 Noroeste 8 Noroeste 0 -- -- 91
2020-03-30 05:00:00 10.4 0 Calma 9 Oeste 0 -- -- 88
2020-03-30 04:00:00 11.7 3 Oeste 10 Nordeste 0 -- -- 85
2020-03-30 03:00:00 12.3 3 Nordeste 14 Noroeste 0 -- -- 88
2020-03-30 02:00:00 12.6 6 Noroeste 17 Oeste 0 -- -- 88
2020-03-30 01:00:00 12.8 10 Noroeste 23 Noroeste 0 -- -- 90
2020-03-30 00:00:00 12.6 10 Noroeste 20 Noroeste 0 -- -- 88
2020-03-29 23:00:00 13.1 13 Noroeste 29 Oeste 0 -- -- 84
2020-03-29 22:00:00 13.5 18 Oeste 29 Oeste 0 -- -- 78
2020-03-29 21:00:00 14.6 14 Oeste 26 Oeste 0 -- -- 66
2020-03-29 20:00:00 16.2 6 Oeste 17 Sudoeste 0 -- -- 58
2020-03-29 19:00:00 16.4 10 Sudoeste 20 Sudoeste 0 -- -- 65
2020-03-29 18:00:00 16.9 10 Sudoeste 26 Sudoeste 0 -- -- 57
2020-03-29 17:00:00 18.5 8 Sudoeste 16 Sur 0 -- -- 45
2020-03-29 16:00:00 18.8 7 Sur 19 Sudoeste 0 -- -- 43
2020-03-29 15:00:00 18.5 8 Sur 19 Sur 0 -- -- 50
2020-03-29 14:00:00 21.1 4 Noroeste 14 Oeste 0 -- -- 45
2020-03-29 13:00:00 21.1 6 Noroeste 15 Noroeste 0 -- -- 36
2020-03-29 12:00:00 18.3 7 Noroeste 15 Norte 0 -- -- 49
2020-03-29 11:00:00 18.6 9 Noroeste 18 Noroeste 0 -- -- 50
2020-03-29 10:00:00 17.9 5 Noroeste 9 Noroeste 0 -- -- 63
2020-03-29 09:00:00 10 5 Norte 12 Noroeste 0 -- -- 96
2020-03-29 08:00:00 7.8 7 Noroeste 10 Noroeste 0 -- -- 96
2020-03-29 07:00:00 8 5 Noroeste 6 Noroeste 0 -- -- 96
2020-03-29 06:00:00 9 4 Noroeste 8 Noroeste 0 -- -- 95
2020-03-29 05:00:00 9.1 6 Noroeste 8 Noroeste 0 -- -- 95
2020-03-29 03:00:00 10.2 5 Noroeste 7 Noroeste 0 -- -- 94
2020-03-29 01:00:00 10.6 5 Noroeste 6 Noroeste 0 -- -- 94
2020-03-29 00:00:00 10.6 3 Noroeste 5 Noroeste 0 -- -- 93
2020-03-28 23:00:00 10.6 4 Norte 9 Noroeste 0 -- -- 93
2020-03-28 22:00:00 10.2 6 Noroeste 8 Noroeste 0 -- -- 91
2020-03-28 21:00:00 11.7 5 Noroeste 10 Noroeste 0 -- -- 86
2020-03-28 20:00:00 12.4 7 Noroeste 13 Norte 0 -- -- 83
2020-03-28 19:00:00 12.9 9 Nordeste 18 Norte 0 -- -- 83
2020-03-28 18:00:00 13.7 11 Nordeste 23 Nordeste 0 -- -- 79
2020-03-28 17:00:00 14.1 14 Nordeste 24 Nordeste 0 -- -- 75
2020-03-28 16:00:00 14.3 14 Nordeste 22 Nordeste 0 -- -- 72
2020-03-28 15:00:00 14.6 13 Nordeste 22 Nordeste 0 -- -- 65
2020-03-28 14:00:00 15.9 13 Este 22 Este 0 -- -- 63
2020-03-28 13:00:00 16.1 13 Nordeste 25 Este 0.2 -- -- 65
2020-03-28 12:00:00 15.2 13 Este 20 Nordeste 0 -- -- 70
2020-03-28 11:00:00 15.4 8 Nordeste 23 Norte 0 -- -- 73
2020-03-28 10:00:00 13 12 Nordeste 19 Nordeste 0 -- -- 83
2020-03-28 09:00:00 11.5 10 Norte 19 Norte 0 -- -- 89
2020-03-28 08:00:00 10.5 6 Norte 18 Nordeste 0.2 -- -- 94
2020-03-28 07:00:00 9.6 6 Norte 12 Norte 0 -- -- 95
2020-03-28 06:00:00 9.1 9 Norte 14 Norte 0 -- -- 96
2020-03-28 05:00:00 8.8 6 Noroeste 14 Noroeste 0 -- -- 95
2020-03-28 04:00:00 8.4 8 Noroeste 12 Noroeste 0 -- -- 95
2020-03-28 03:00:00 9.4 6 Noroeste 13 Nordeste 1.8 -- -- 94
2020-03-28 02:00:00 9.8 6 Norte 12 Norte 0.2 -- -- 93
2020-03-28 01:00:00 9.4 7 Norte 12 Norte 0 -- -- 92
2020-03-28 00:00:00 9.1 6 Norte 10 Norte 0 -- -- 92
2020-03-27 23:00:00 9.2 7 Norte 20 Nordeste 0 -- -- 91
2020-03-27 22:00:00 9.7 8 Norte 16 Nordeste 0 -- -- 92
2020-03-27 21:00:00 9.7 5 Norte 27 Nordeste 3.6 -- -- 92
2020-03-27 20:00:00 10.3 14 Norte 33 Norte 0 -- -- 82
2020-03-27 19:00:00 10.9 18 Nordeste 30 Norte 0 -- -- 72
2020-03-27 18:00:00 12.6 18 Norte 29 Norte 0 -- -- 58
2020-03-27 17:00:00 13.3 15 Nordeste 28 Noroeste 0 -- -- 55
2020-03-27 16:00:00 14.1 16 Norte 29 Norte 0 -- -- 54
2020-03-27 15:00:00 14.7 15 Norte 31 Noroeste 0 -- -- 53
2020-03-27 14:00:00 13.9 13 Norte 28 Nordeste 0 -- -- 54
2020-03-27 13:00:00 14.2 18 Nordeste 31 Nordeste 0 -- -- 50
2020-03-27 12:00:00 13.9 15 Nordeste 27 Norte 0 -- -- 50
2020-03-27 11:00:00 13.7 12 Norte 28 Nordeste 0 -- -- 54
2020-03-27 10:00:00 12.8 13 Nordeste 29 Nordeste 0 -- -- 58
2020-03-27 09:00:00 12.8 10 Nordeste 17 Nordeste 0 -- -- 54
2020-03-27 08:00:00 11.3 5 Noroeste 13 Noroeste 0 -- -- 71
2020-03-27 07:00:00 5.3 8 Noroeste 14 Noroeste 0 -- -- 87
2020-03-27 06:00:00 4.8 8 Noroeste 14 Noroeste 0 -- -- 87
2020-03-27 05:00:00 5.2 9 Noroeste 14 Noroeste 0 -- -- 84
2020-03-27 04:00:00 6.9 6 Noroeste 18 Este 0 -- -- 73
2020-03-27 03:00:00 9.3 8 Este 30 Este 0 -- -- 64
2020-03-27 02:00:00 9.7 13 Este 33 Este 0 -- -- 64
2020-03-27 01:00:00 9.7 12 Este 30 Este 0 -- -- 67
2020-03-27 00:00:00 9.6 15 Este 36 Este 0.2 -- -- 68
2020-03-26 23:00:00 9.4 13 Este 27 Nordeste 0.8 -- -- 84
2020-03-26 22:00:00 8.6 11 Este 36 Nordeste 8.8 -- -- 92
2020-03-26 21:00:00 8.6 11 Este 36 Este 2.6 -- -- 91
2020-03-26 20:00:00 8.5 15 Este 31 Este 6.4 -- -- 91
2020-03-26 19:00:00 8.1 4 Este 25 Este 3.4 -- -- 91
2020-03-26 18:00:00 8.4 7 Este 13 Este 1.2 -- -- 91
2020-03-26 17:00:00 7.6 4 Este 24 Nordeste 3.2 -- -- 91
2020-03-26 16:00:00 8 8 Nordeste 13 Norte 1.4 -- -- 93
2020-03-26 15:00:00 8 5 Nordeste 12 Este 2.4 -- -- 93
2020-03-26 14:00:00 8.1 7 Nordeste 22 Este 3.4 -- -- 94
2020-03-26 13:00:00 7.9 5 Nordeste 15 Nordeste 4.6 -- -- 93
2020-03-26 12:00:00 8.2 6 Este 17 Noroeste 7.4 -- -- 91
2020-03-26 11:00:00 8.3 4 Sur 20 Sur 7.2 -- -- 81
2020-03-26 10:00:00 12.5 4 Sudoeste 14 Oeste 0 -- -- 66
2020-03-26 09:00:00 13.6 5 Sudeste 9 Sur 0 -- -- 62
2020-03-26 08:00:00 11.7 2 Noroeste 9 Norte 0 -- -- 70
2020-03-26 07:00:00 7.1 7 Noroeste 22 Oeste 0 -- -- 77
2020-03-26 06:00:00 8.2 8 Oeste 22 Oeste 0 -- -- 74
2020-03-26 05:00:00 7.7 15 Oeste 25 Oeste 0 -- -- 79
2020-03-26 04:00:00 3.8 8 Noroeste 13 Noroeste 0 -- -- 87
2020-03-26 03:00:00 4 7 Norte 12 Noroeste 0 -- -- 87
2020-03-26 02:00:00 4.1 8 Noroeste 12 Noroeste 0 -- -- 86
2020-03-26 01:00:00 4.3 8 Noroeste 12 Noroeste 0 -- -- 85
2020-03-26 00:00:00 4.8 9 Noroeste 12 Noroeste 0 -- -- 82
2020-03-25 23:00:00 5.7 8 Noroeste 13 Noroeste 0 -- -- 78
2020-03-25 22:00:00 5.6 8 Noroeste 11 Noroeste 0 -- -- 75
2020-03-25 21:00:00 6.7 6 Noroeste 9 Noroeste 0 -- -- 71
2020-03-25 20:00:00 7.9 4 Noroeste 12 Nordeste 0 -- -- 65
2020-03-25 19:00:00 10.7 8 Este 20 Este 0 -- -- 51
2020-03-25 18:00:00 12.1 12 Nordeste 30 Este 0 -- -- 46
2020-03-25 17:00:00 13.1 14 Este 30 Este 0 -- -- 40
2020-03-25 16:00:00 12.8 17 Nordeste 33 Nordeste 0 -- -- 41
2020-03-25 15:00:00 13.4 14 Este 32 Este 0 -- -- 45
2020-03-25 14:00:00 13.4 14 Este 34 Nordeste 0 -- -- 43
2020-03-25 13:00:00 13.1 13 Este 28 Sudeste 0 -- -- 50
2020-03-25 12:00:00 14.3 12 Sudeste 31 Sudeste 0 -- -- 45
2020-03-25 11:00:00 13.6 12 Este 30 Nordeste 0 -- -- 45
2020-03-25 10:00:00 13.3 13 Este 33 Nordeste 0 -- -- 47
2020-03-25 09:00:00 12.2 14 Nordeste 34 Sudeste 0 -- -- 58
2020-03-25 08:00:00 11 12 Este 30 Sudeste 0 -- -- 58
2020-03-25 07:00:00 9.9 21 Este 35 Este 0 -- -- 66
2020-03-25 06:00:00 9.8 12 Este 31 Este 0 -- -- 53
2020-03-25 05:00:00 10 14 Este 32 Este 0 -- -- 51
2020-03-25 04:00:00 10.5 15 Este 36 Este 0 -- -- 54
2020-03-25 03:00:00 10.7 17 Este 40 Este 0 -- -- 51
2020-03-25 02:00:00 10.5 15 Este 34 Este 0 -- -- 59
2020-03-25 01:00:00 10.3 13 Este 33 Este 0 -- -- 66
2020-03-25 00:00:00 10.9 22 Este 40 Nordeste 0 -- -- 64
2020-03-24 23:00:00 11.5 22 Este 36 Este 0 -- -- 59
2020-03-24 22:00:00 11.5 16 Este 41 Este 0 -- -- 60
2020-03-24 21:00:00 11.6 19 Este 37 Este 0 -- -- 57
2020-03-24 20:00:00 12 22 Este 44 Este 0 -- -- 58
2020-03-24 19:00:00 12 18 Este 43 Este 0 -- -- 55
2020-03-24 18:00:00 12.4 23 Este 39 Este 0 -- -- 54
2020-03-24 17:00:00 13.2 20 Este 41 Sudeste 0 -- -- 56
2020-03-24 16:00:00 13.7 19 Este 40 Este 0 -- -- 57
2020-03-24 15:00:00 13.6 19 Este 39 Sudeste 0 -- -- 68
2020-03-24 14:00:00 13.7 23 Sudeste 39 Sudeste 0 -- -- 66
2020-03-24 13:00:00 13.8 21 Este 40 Este 0 -- -- 72
2020-03-24 12:00:00 14.1 22 Este 42 Sudeste 0 -- -- 73
2020-03-24 11:00:00 13.8 19 Este 37 Este 0 -- -- 76
2020-03-24 10:00:00 13.9 19 Sudeste 43 Este 0 -- -- 77
2020-03-24 09:00:00 13.7 22 Este 38 Sudeste 0 -- -- 81
2020-03-24 08:00:00 13.5 20 Este 36 Este 0 -- -- 80
2020-03-24 07:00:00 13.1 14 Este 41 Este 0 -- -- 79
2020-03-24 06:00:00 13.6 21 Este 36 Este 0 -- -- 79
2020-03-24 05:00:00 13.8 16 Este 35 Este 0 -- -- 82
2020-03-24 04:00:00 13.9 15 Este 32 Este 0 -- -- 84
2020-03-24 03:00:00 14.3 17 Este 33 Sudeste 0 -- -- 81
2020-03-24 02:00:00 14.4 19 Este 32 Sudeste 0 -- -- 83
2020-03-24 01:00:00 14.6 17 Sudeste 32 Sudeste 0 -- -- 82
2020-03-24 00:00:00 14.6 16 Sudeste 30 Sudeste 0 -- -- 84
2020-03-23 23:00:00 14.5 12 Sudeste 29 Este 0 -- -- 82
2020-03-23 22:00:00 14.4 10 Este 28 Este 0 -- -- 82
2020-03-23 21:00:00 14.3 12 Este 25 Este 0 -- -- 79
2020-03-23 20:00:00 14.6 11 Este 24 Este 0 -- -- 80
2020-03-23 19:00:00 15 11 Este 25 Este 0 -- -- 79
2020-03-23 18:00:00 15.5 12 Este 22 Este 0 -- -- 76
2020-03-23 17:00:00 16.5 15 Este 23 Este 0 -- -- 72
2020-03-23 16:00:00 17.5 12 Sudeste 24 Sudeste 0 -- -- 74
2020-03-23 15:00:00 17.9 13 Sudeste 23 Sudeste 0 -- -- 72
2020-03-23 14:00:00 17.9 13 Sudeste 22 Sudeste 0 -- -- 73
2020-03-23 13:00:00 18 12 Sudeste 22 Sudeste 0 -- -- 69
2020-03-23 12:00:00 17.6 14 Sudeste 21 Sudeste 0 -- -- 74
2020-03-23 11:00:00 17.5 11 Sudeste 19 Sudeste 0 -- -- 74
2020-03-23 10:00:00 17.4 10 Sudeste 18 Sudeste 0.2 -- -- 73
2020-03-23 09:00:00 16.7 12 Sudeste 18 Sudeste 0 -- -- 74
2020-03-23 08:00:00 15.9 8 Sur 18 Sudeste 0 -- -- 81
2020-03-23 07:00:00 13.9 8 Sudeste 17 Sudeste 0 -- -- 89
2020-03-23 06:00:00 13.7 9 Sudeste 18 Sudeste 0 -- -- 91
2020-03-23 05:00:00 12.3 3 Oeste 12 Sur 0 -- -- 93
2020-03-23 04:00:00 13.4 5 Sur 15 Sudeste 0 -- -- 94
2020-03-23 03:00:00 13 4 Sur 13 Sur 0 -- -- 97
2020-03-23 02:00:00 11.2 0 Calma 4 Sudoeste 0 -- -- 97
2020-03-23 01:00:00 11.4 0 Calma 4 Norte 0 -- -- 96
2020-03-23 00:00:00 11.5 3 Noroeste 6 Noroeste 0 -- -- 96
2020-03-22 23:00:00 12 3 Noroeste 6 Noroeste 0 -- -- 95
2020-03-22 22:00:00 12 0 Calma 8 Noroeste 0 -- -- 94
2020-03-22 21:00:00 12.1 5 Noroeste 8 Noroeste 0 -- -- 93
2020-03-22 20:00:00 12.8 4 Noroeste 7 Norte 0 -- -- 90
2020-03-22 19:00:00 14.7 3 Sur 15 Sur 0 -- -- 86
2020-03-22 18:00:00 15 9 Sur 24 Sudeste 0 -- -- 84
2020-03-22 17:00:00 16.4 10 Sudeste 18 Sudeste 0.4 -- -- 83
2020-03-22 16:00:00 15.3 5 Noroeste 16 Oeste 0 -- -- 81
2020-03-22 15:00:00 16.2 9 Sur 18 Sudeste 0 -- -- 83
2020-03-22 14:00:00 16 8 Noroeste 29 Sudoeste 0 -- -- 72
2020-03-22 13:00:00 16 12 Sur 25 Sudoeste 0 -- -- 85
2020-03-22 12:00:00 16.6 10 Sur 19 Sur 0 -- -- 87
2020-03-22 11:00:00 15.3 7 Sur 15 Sur 0 -- -- 92
2020-03-22 10:00:00 15.6 9 Sudeste 23 Sudeste 0 -- -- 93
2020-03-22 09:00:00 15.3 13 Sudeste 22 Sur 0 -- -- 94
2020-03-22 08:00:00 15 7 Sudeste 20 Sudeste 0.2 -- -- 96
2020-03-22 07:00:00 14.1 8 Sudeste 26 Sudeste 0 -- -- 96
2020-03-22 06:00:00 13.4 0 Calma 5 Noroeste 0 -- -- 95
2020-03-22 05:00:00 13.6 0 Calma 6 Noroeste 0.2 -- -- 95
2020-03-22 04:00:00 13.7 4 Noroeste 9 Noroeste 0.8 -- -- 94
2020-03-22 03:00:00 13.9 4 Norte 13 Nordeste 0 -- -- 94
2020-03-22 02:00:00 14 5 Norte 9 Norte 0.2 -- -- 93
2020-03-22 01:00:00 14 7 Norte 14 Nordeste 0 -- -- 93
2020-03-22 00:00:00 13.7 4 Nordeste 7 Nordeste 0 -- -- 92
2020-03-21 23:00:00 14.2 4 Nordeste 9 Norte 0 -- -- 89
2020-03-21 22:00:00 14.3 4 Norte 10 Nordeste 0 -- -- 87
2020-03-21 21:00:00 14.1 4 Nordeste 10 Este 0 -- -- 86
2020-03-21 20:00:00 14.6 4 Este 13 Este 0 -- -- 84
2020-03-21 19:00:00 15 7 Este 16 Este 0 -- -- 83
2020-03-21 18:00:00 16.2 8 Este 17 Sudeste 0 -- -- 78
2020-03-21 17:00:00 16.5 9 Sudeste 21 Sudeste 0 -- -- 77
2020-03-21 16:00:00 16.9 12 Sudeste 19 Sudeste 0 -- -- 75
2020-03-21 15:00:00 16.8 8 Sudeste 21 Sudeste 0 -- -- 74
2020-03-21 14:00:00 17.3 14 Sudeste 25 Sudeste 0 -- -- 73
2020-03-21 13:00:00 18.1 15 Sudeste 27 Sudeste 0 -- -- 71
2020-03-21 12:00:00 17.6 15 Sudeste 26 Este 0 -- -- 73
2020-03-21 11:00:00 17.6 14 Este 30 Este 0 -- -- 71
2020-03-21 10:00:00 16.2 13 Este 26 Este 0 -- -- 80
2020-03-21 09:00:00 14.8 9 Este 20 Nordeste 0 -- -- 85
2020-03-21 08:00:00 14.5 12 Nordeste 22 Nordeste 0 -- -- 87
2020-03-21 07:00:00 14.1 8 Nordeste 15 Nordeste 0 -- -- 87
2020-03-21 06:00:00 14 7 Nordeste 24 Nordeste 0 -- -- 87
2020-03-21 05:00:00 13.9 15 Nordeste 29 Este 0 -- -- 85
2020-03-21 04:00:00 13.9 14 Este 27 Nordeste 0 -- -- 83
2020-03-21 03:00:00 13.5 11 Nordeste 20 Nordeste 0 -- -- 84
2020-03-21 02:00:00 13.6 10 Este 26 Este 0 -- -- 85
2020-03-21 01:00:00 13.8 15 Este 31 Este 0 -- -- 84
2020-03-21 00:00:00 13.6 13 Este 27 Este 0 -- -- 83
2020-03-20 23:00:00 14 11 Este 24 Este 0 -- -- 81
2020-03-20 22:00:00 14 13 Este 24 Este 0 -- -- 81
2020-03-20 21:00:00 14.2 12 Este 26 Sudeste 0 -- -- 78
2020-03-20 20:00:00 14.4 12 Este 24 Este 0 -- -- 78
2020-03-20 19:00:00 14.5 13 Este 26 Este 0 -- -- 77
2020-03-20 18:00:00 15.1 10 Este 24 Sudeste 0 -- -- 76
2020-03-20 17:00:00 15.8 13 Este 27 Sudeste 0 -- -- 70
2020-03-20 16:00:00 16.6 12 Este 24 Sudeste 0 -- -- 72
2020-03-20 15:00:00 16.9 17 Sudeste 28 Sudeste 0 -- -- 69
2020-03-20 14:00:00 17.8 14 Sudeste 32 Sudeste 0 -- -- 64
2020-03-20 13:00:00 17.8 17 Sudeste 36 Sudeste 0 -- -- 62
2020-03-20 12:00:00 17.6 15 Sudeste 32 Este 0 -- -- 59
2020-03-20 11:00:00 17.2 18 Sudeste 34 Sudeste 0 -- -- 64
2020-03-20 10:00:00 16.8 16 Sudeste 31 Sudeste 0 -- -- 62
2020-03-20 09:00:00 15.9 14 Sudeste 28 Sudeste 0 -- -- 69
2020-03-20 08:00:00 14.6 15 Sudeste 28 Sudeste 0 -- -- 75
2020-03-20 07:00:00 13.7 11 Sudeste 27 Sudeste 0 -- -- 79
2020-03-20 06:00:00 13.8 13 Sudeste 23 Sudeste 0 -- -- 80
2020-03-20 05:00:00 13.4 9 Sudeste 20 Sudeste 0 -- -- 80
2020-03-20 04:00:00 13.5 10 Sudeste 19 Sudeste 0 -- -- 78
2020-03-20 03:00:00 13 5 Sudeste 15 Sudeste 0 -- -- 81
2020-03-20 02:00:00 12.4 4 Sudeste 12 Este 0 -- -- 84
2020-03-20 01:00:00 12.7 4 Este 16 Este 0 -- -- 84
2020-03-20 00:00:00 13 8 Este 19 Sudeste 0 -- -- 82
2020-03-19 23:00:00 13.1 9 Este 19 Sudeste 0 -- -- 83
2020-03-19 22:00:00 13.4 8 Este 15 Este 0 -- -- 84
2020-03-19 21:00:00 13.1 6 Este 13 Este 0 -- -- 85
2020-03-19 20:00:00 13.3 4 Este 13 Este 0 -- -- 83
2020-03-19 19:00:00 13.7 7 Este 16 Sudeste 0 -- -- 81
2020-03-19 18:00:00 15 8 Sudeste 16 Sudeste 0 -- -- 75
2020-03-19 17:00:00 15.7 10 Sudeste 19 Sudeste 0 -- -- 73
2020-03-19 16:00:00 16.1 13 Sudeste 24 Sudeste 0 -- -- 71
2020-03-19 15:00:00 16.5 14 Sudeste 23 Sudeste 0 -- -- 68
2020-03-19 14:00:00 17 14 Sudeste 24 Sudeste 0 -- -- 65
2020-03-19 13:00:00 17.3 13 Sudeste 23 Sudeste 0 -- -- 68
2020-03-19 12:00:00 17 13 Sudeste 21 Sudeste 0 -- -- 67
2020-03-19 11:00:00 17.4 13 Sudeste 23 Sudeste 0 -- -- 67
2020-03-19 10:00:00 16.4 12 Sudeste 22 Sudeste 0 -- -- 72
2020-03-19 09:00:00 14.1 9 Sudeste 18 Sudeste 0 -- -- 89
2020-03-19 08:00:00 12.2 3 Este 9 Este 0 -- -- 98
2020-03-19 07:00:00 9.8 3 Nordeste 6 Nordeste 0 -- -- 97
2020-03-19 06:00:00 9.4 5 Noroeste 7 Noroeste 0 -- -- 96
2020-03-19 05:00:00 9.8 6 Noroeste 9 Noroeste 0 -- -- 96
2020-03-19 04:00:00 10.3 6 Noroeste 10 Noroeste 0 -- -- 95
2020-03-19 03:00:00 10.7 6 Noroeste 9 Noroeste 0 -- -- 95
2020-03-19 02:00:00 10.8 5 Noroeste 9 Noroeste 0 -- -- 94
2020-03-19 01:00:00 11 6 Noroeste 8 Noroeste 0 -- -- 93
2020-03-19 00:00:00 11.3 6 Noroeste 9 Noroeste 0 -- -- 91
2020-03-18 23:00:00 12.5 5 Noroeste 9 Este 0 -- -- 88
2020-03-18 22:00:00 13.9 4 Este 14 Este 0 -- -- 88
2020-03-18 21:00:00 14.2 7 Sudeste 14 Sudeste 0 -- -- 86
2020-03-18 20:00:00 14.2 5 Sudeste 15 Este 0 -- -- 85
2020-03-18 19:00:00 14.5 8 Este 18 Sudeste 0 -- -- 82
2020-03-18 18:00:00 15.1 8 Este 19 Sudeste 0 -- -- 77
2020-03-18 17:00:00 15.9 7 Este 18 Este 0 -- -- 74
2020-03-18 16:00:00 16.5 10 Este 20 Este 0 -- -- 72
2020-03-18 15:00:00 17.1 12 Este 22 Este 0 -- -- 70
2020-03-18 14:00:00 18 11 Este 25 Este 0 -- -- 69
2020-03-18 13:00:00 17.2 14 Este 27 Este 0 -- -- 74
2020-03-18 12:00:00 17 13 Este 24 Este 0 -- -- 75
2020-03-18 11:00:00 16.3 15 Este 24 Este 0 -- -- 78
2020-03-18 10:00:00 16 9 Este 22 Nordeste 0 -- -- 82
2020-03-18 09:00:00 14.6 10 Este 21 Este 0 -- -- 85
2020-03-18 08:00:00 14.1 11 Este 24 Este 0 -- -- 87
2020-03-18 07:00:00 13.7 9 Este 23 Este 0 -- -- 88
2020-03-18 06:00:00 13.8 13 Nordeste 27 Nordeste 0 -- -- 88
2020-03-18 05:00:00 13.9 12 Este 26 Este 0 -- -- 86
2020-03-18 04:00:00 13.9 13 Este 25 Nordeste 0 -- -- 86
2020-03-18 03:00:00 14.1 13 Nordeste 30 Este 0 -- -- 83
2020-03-18 02:00:00 14.3 13 Nordeste 31 Este 0 -- -- 82
2020-03-18 01:00:00 14.4 17 Este 28 Este 0 -- -- 79
2020-03-18 00:00:00 14.6 12 Nordeste 34 Este 0 -- -- 76
2020-03-17 23:00:00 14.6 17 Nordeste 32 Este 0 -- -- 77
2020-03-17 22:00:00 14.6 14 Este 35 Este 0 -- -- 81
2020-03-17 21:00:00 14.9 15 Este 39 Este 0 -- -- 81
2020-03-17 20:00:00 14.8 18 Este 33 Este 0 -- -- 83
2020-03-17 19:00:00 14.8 16 Este 33 Este 0 -- -- 85
2020-03-17 18:00:00 15.1 13 Sudeste 34 Sudeste 0 -- -- 84
2020-03-17 17:00:00 15.4 18 Sudeste 34 Sudeste 0 -- -- 83
2020-03-17 16:00:00 15.8 19 Sudeste 36 Sudeste 0 -- -- 82
2020-03-17 15:00:00 16.2 18 Sudeste 33 Sudeste 0 -- -- 78
2020-03-17 14:00:00 16.4 17 Sudeste 36 Sudeste 0 -- -- 78
2020-03-17 13:00:00 16.4 19 Sudeste 35 Sudeste 0 -- -- 81
2020-03-17 12:00:00 16.2 19 Sudeste 36 Este 0 -- -- 84
2020-03-17 11:00:00 15.8 16 Sudeste 30 Sudeste 0 -- -- 87
2020-03-17 10:00:00 15.5 16 Sudeste 33 Sudeste 0 -- -- 88
2020-03-17 09:00:00 15.4 14 Sudeste 33 Este 0 -- -- 89
2020-03-17 08:00:00 15.3 18 Sudeste 35 Sudeste 0 -- -- 90
2020-03-17 07:00:00 15.1 18 Sudeste 31 Sudeste 0 -- -- 92
2020-03-17 06:00:00 15.1 19 Este 29 Este 0.2 -- -- 93
2020-03-17 05:00:00 15.1 11 Este 26 Este 0 -- -- 93
2020-03-17 04:00:00 15.3 9 Sudeste 27 Sudeste 0 -- -- 93
2020-03-17 03:00:00 15.3 8 Este 21 Este 0 -- -- 92
2020-03-17 02:00:00 15.3 9 Sudeste 20 Sudeste 0 -- -- 92
2020-03-17 01:00:00 15.3 10 Sudeste 18 Sudeste 0 -- -- 92
2020-03-17 00:00:00 15.3 9 Sudeste 21 Sudeste 0 -- -- 92
2020-03-16 23:00:00 15.3 9 Sudeste 17 Sudeste 0 -- -- 92
2020-03-16 22:00:00 15.3 12 Sudeste 22 Sudeste 0 -- -- 92
2020-03-16 21:00:00 15.3 11 Sudeste 24 Sudeste 0 -- -- 91
2020-03-16 20:00:00 15.3 11 Sudeste 21 Sudeste 0 -- -- 92
2020-03-16 19:00:00 15.4 10 Sudeste 21 Sur 0 -- -- 91
2020-03-16 18:00:00 15.6 13 Sudeste 26 Sudeste 0 -- -- 91
2020-03-16 17:00:00 15.8 11 Sudeste 18 Sudeste 0 -- -- 89
2020-03-16 16:00:00 15.6 11 Sudeste 22 Sudeste 0 -- -- 89
2020-03-16 15:00:00 15.5 13 Sudeste 24 Sudeste 0 -- -- 90
2020-03-16 14:00:00 15.6 6 Sur 27 Sudeste 0 -- -- 89
2020-03-16 13:00:00 15.8 14 Sudeste 26 Sur 0 -- -- 89
2020-03-16 12:00:00 15.4 12 Sur 25 Sur 0 -- -- 91
2020-03-16 11:00:00 15.2 10 Sudeste 35 Sur 0 -- -- 91
2020-03-16 10:00:00 15 13 Sur 27 Sur 0.4 -- -- 93
2020-03-16 09:00:00 15.1 12 Sudeste 28 Sudeste 0 -- -- 91
2020-03-16 08:00:00 14.9 11 Sudeste 21 Sur 0.2 -- -- 91
2020-03-16 07:00:00 14.9 12 Sudeste 24 Sudeste 0 -- -- 88
2020-03-16 06:00:00 14.7 12 Sudeste 22 Sudeste 0 -- -- 87
2020-03-16 05:00:00 14.5 10 Sudeste 25 Sudeste 0 -- -- 88
2020-03-16 04:00:00 14.2 13 Sudeste 26 Sudeste 0 -- -- 87
2020-03-16 03:00:00 13.9 12 Sudeste 24 Sudeste 0 -- -- 85
2020-03-16 02:00:00 13.5 7 Sudeste 15 Sudeste 0 -- -- 87
2020-03-16 01:00:00 13.7 9 Sudeste 21 Sur 0 -- -- 86
2020-03-16 00:00:00 13.7 9 Sudeste 19 Sudeste 0 -- -- 84
2020-03-15 23:00:00 13.7 10 Sur 21 Sudeste 0 -- -- 83
2020-03-15 22:00:00 13.6 8 Sudeste 15 Sudeste 0 -- -- 82
2020-03-15 21:00:00 13.5 8 Sudeste 14 Sudeste 0 -- -- 83
2020-03-15 20:00:00 13.4 6 Sudeste 12 Sudeste 0 -- -- 85
2020-03-15 19:00:00 13.9 7 Sudeste 15 Sudeste 0 -- -- 84
2020-03-15 18:00:00 14.9 9 Sudeste 16 Sudeste 0 -- -- 79
2020-03-15 17:00:00 15.6 9 Sudeste 17 Sudeste 0 -- -- 74
2020-03-15 16:00:00 16.2 10 Sudeste 18 Sudeste 0 -- -- 71
2020-03-15 15:00:00 16.9 8 Sur 19 Sudeste 0 -- -- 70
2020-03-15 14:00:00 16.8 13 Sudeste 18 Sudeste 0 -- -- 70
2020-03-15 13:00:00 17.2 11 Sur 20 Sur 0 -- -- 71
2020-03-15 12:00:00 18.1 7 Sur 14 Sur 0 -- -- 72
2020-03-15 11:00:00 16.5 7 Sur 13 Sudeste 0 -- -- 74
2020-03-15 10:00:00 16.6 7 Sur 13 Sudeste 0 -- -- 74
2020-03-15 09:00:00 17.2 0 Calma 6 Norte 0 -- -- 79
2020-03-15 08:00:00 11.3 5 Norte 10 Noroeste 0 -- -- 96
2020-03-15 07:00:00 7.4 9 Noroeste 12 Noroeste 0 -- -- 97
2020-03-15 06:00:00 8.1 8 Norte 11 Noroeste 0 -- -- 97
2020-03-15 05:00:00 8.3 8 Noroeste 10 Noroeste 0 -- -- 96
2020-03-15 04:00:00 8.5 8 Noroeste 11 Noroeste 0 -- -- 96
2020-03-15 03:00:00 8.1 6 Norte 9 Norte 0 -- -- 95
2020-03-15 02:00:00 8.3 8 Norte 10 Norte 0 -- -- 95
2020-03-15 01:00:00 8.7 7 Norte 10 Noroeste 0 -- -- 94
2020-03-15 00:00:00 8.8 5 Norte 9 Norte 0 -- -- 93
2020-03-14 23:00:00 9.3 6 Noroeste 10 Noroeste 0 -- -- 92
2020-03-14 22:00:00 9.8 6 Noroeste 9 Noroeste 0 -- -- 90
2020-03-14 21:00:00 10.7 6 Noroeste 10 Noroeste 0 -- -- 89
2020-03-14 20:00:00 11.6 6 Noroeste 8 Noroeste 0 -- -- 86
2020-03-14 19:00:00 13.5 3 Sur 7 Sur 0 -- -- 80
2020-03-14 18:00:00 14.9 6 Sudeste 15 Sudeste 0 -- -- 74
2020-03-14 17:00:00 16.7 7 Sudeste 21 Este 0 -- -- 63
2020-03-14 16:00:00 16.5 12 Sudeste 20 Sudeste 0 -- -- 62
2020-03-14 15:00:00 16.6 12 Sur 20 Sudeste 0 -- -- 61
2020-03-14 14:00:00 17.2 10 Sur 18 Sur 0 -- -- 59
2020-03-14 13:00:00 17.2 7 Sur 19 Sudeste 0 -- -- 59
2020-03-14 12:00:00 17.2 10 Sudeste 20 Sudeste 0 -- -- 57
2020-03-14 11:00:00 17.2 9 Sudeste 19 Este 0 -- -- 58
2020-03-14 10:00:00 15.3 11 Nordeste 23 Nordeste 0 -- -- 63
2020-03-14 09:00:00 15.8 9 Nordeste 18 Este 0 -- -- 67
2020-03-14 08:00:00 11.7 4 Nordeste 7 Noroeste 0 -- -- 92
2020-03-14 07:00:00 12 5 Noroeste 9 Noroeste 0 -- -- 93
2020-03-14 06:00:00 11.9 4 Noroeste 13 Norte 0.2 -- -- 91
2020-03-14 05:00:00 12.3 7 Norte 14 Norte 0.6 -- -- 90
2020-03-14 04:00:00 12.3 3 Norte 9 Norte 0.2 -- -- 82
2020-03-14 03:00:00 12.5 6 Norte 10 Norte 0 -- -- 74
2020-03-14 02:00:00 12.3 7 Noroeste 11 Noroeste 0 -- -- 71
2020-03-14 01:00:00 13.4 6 Noroeste 13 Norte 0 -- -- 66
2020-03-14 00:00:00 12.6 6 Noroeste 11 Noroeste 0 -- -- 68
2020-03-13 23:00:00 12.5 4 Noroeste 11 Noroeste 0 -- -- 67
2020-03-13 22:00:00 12.2 5 Noroeste 11 Noroeste 0 -- -- 81
2020-03-13 21:00:00 12.9 6 Norte 12 Norte 0 -- -- 84
2020-03-13 20:00:00 12.7 7 Noroeste 17 Noroeste 0 -- -- 84
2020-03-13 19:00:00 13.5 7 Norte 22 Nordeste 0 -- -- 80
2020-03-13 18:00:00 14.5 10 Nordeste 26 Nordeste 0 -- -- 77
2020-03-13 17:00:00 16.3 15 Nordeste 25 Norte 0 -- -- 71
2020-03-13 16:00:00 17.5 13 Nordeste 26 Nordeste 0 -- -- 68
2020-03-13 15:00:00 18.4 12 Nordeste 29 Nordeste 0 -- -- 66
2020-03-13 14:00:00 18.8 18 Nordeste 36 Nordeste 0 -- -- 65
2020-03-13 13:00:00 18.9 20 Nordeste 36 Nordeste 0 -- -- 62
2020-03-13 12:00:00 18.4 15 Este 37 Este 0 -- -- 70
2020-03-13 11:00:00 17.7 18 Nordeste 33 Nordeste 0 -- -- 70
2020-03-13 10:00:00 17.3 17 Nordeste 30 Nordeste 0 -- -- 68
2020-03-13 09:00:00 16.8 4 Norte 17 Norte 0 -- -- 74
2020-03-13 08:00:00 14.1 8 Noroeste 15 Noroeste 0 -- -- 86
2020-03-13 07:00:00 13 5 Noroeste 14 Nordeste 0 -- -- 84
2020-03-13 06:00:00 13.5 6 Noroeste 24 Nordeste 0 -- -- 81
2020-03-13 05:00:00 11.1 9 Norte 15 Norte 0 -- -- 92
2020-03-13 04:00:00 11.7 9 Norte 14 Norte 0 -- -- 89
2020-03-13 03:00:00 9.6 10 Noroeste 13 Noroeste 0 -- -- 84
2020-03-13 02:00:00 9.3 10 Noroeste 13 Noroeste 0 -- -- 82
2020-03-13 01:00:00 9.5 8 Noroeste 12 Noroeste 0 -- -- 74
2020-03-13 00:00:00 9.4 9 Noroeste 12 Noroeste 0 -- -- 75
2020-03-12 23:00:00 9.9 8 Noroeste 11 Noroeste 0 -- -- 74
2020-03-12 22:00:00 10.5 8 Noroeste 12 Noroeste 0 -- -- 82
2020-03-12 21:00:00 11.1 8 Noroeste 10 Norte 0 -- -- 87
2020-03-12 20:00:00 12.5 6 Noroeste 8 Noroeste 0 -- -- 89
2020-03-12 19:00:00 15 0 Calma 8 Sudeste 0 -- -- 85
2020-03-12 18:00:00 17 6 Sudeste 13 Sudeste 0 -- -- 75
2020-03-12 17:00:00 18.9 7 Sur 15 Sur 0 -- -- 57
2020-03-12 16:00:00 19.6 9 Sur 18 Sur 0 -- -- 59
2020-03-12 15:00:00 19.8 9 Sur 17 Sur 0 -- -- 63
2020-03-12 14:00:00 21.2 10 Sudoeste 23 Sudoeste 0 -- -- 48
2020-03-12 13:00:00 20.3 14 Sur 21 Sudoeste 0 -- -- 42
2020-03-12 12:00:00 20.7 10 Sudoeste 21 Sudoeste 0 -- -- 43
2020-03-12 11:00:00 19.9 8 Sur 15 Sudoeste 0 -- -- 54
2020-03-12 10:00:00 18.9 8 Sudoeste 13 Sudoeste 0 -- -- 44
2020-03-12 09:00:00 17.7 3 Noroeste 10 Noroeste 0 -- -- 72
2020-03-12 08:00:00 10.4 4 Norte 8 Noroeste 0 -- -- 91
2020-03-12 07:00:00 7.8 5 Noroeste 9 Noroeste 0 -- -- 93
2020-03-12 06:00:00 8.1 3 Noroeste 8 Noroeste 0 -- -- 92
2020-03-12 05:00:00 8.8 4 Noroeste 9 Noroeste 0 -- -- 91
2020-03-12 04:00:00 9.2 6 Noroeste 10 Noroeste 0 -- -- 91
2020-03-12 03:00:00 9.8 5 Noroeste 8 Noroeste 0 -- -- 89
2020-03-12 02:00:00 11 3 Norte 14 Noroeste 0 -- -- 88
2020-03-12 01:00:00 11.8 10 Noroeste 13 Noroeste 0 -- -- 92
2020-03-12 00:00:00 11.9 8 Noroeste 11 Noroeste 0 -- -- 92
2020-03-11 23:00:00 12.8 7 Norte 13 Noroeste 0 -- -- 91
2020-03-11 22:00:00 13.6 5 Norte 23 Noroeste 0 -- -- 91
2020-03-11 21:00:00 14.7 13 Noroeste 24 Oeste 0 -- -- 90
2020-03-11 20:00:00 14.8 5 Norte 18 Noroeste 0 -- -- 89
2020-03-11 19:00:00 15.5 0 Calma 10 Sudoeste 0 -- -- 87
2020-03-11 18:00:00 17.6 5 Sur 17 Sudoeste 0 -- -- 81
2020-03-11 17:00:00 18.4 11 Sudoeste 17 Sudoeste 0 -- -- 77
2020-03-11 16:00:00 19.8 8 Sur 18 Sudoeste 0 -- -- 73
2020-03-11 15:00:00 19.5 11 Sudoeste 22 Sudoeste 0 -- -- 73
2020-03-11 14:00:00 18.8 15 Sudoeste 26 Sur 0 -- -- 75
2020-03-11 13:00:00 18.9 15 Sudoeste 24 Sur 0 -- -- 74
2020-03-11 12:00:00 18.5 10 Sur 20 Sur 0 -- -- 76
2020-03-11 11:00:00 18.3 9 Sur 15 Sur 0 -- -- 73
2020-03-11 10:00:00 17.4 7 Sur 12 Sur 0 -- -- 68
2020-03-11 09:00:00 17.6 2 Norte 10 Noroeste 0 -- -- 67
2020-03-11 08:00:00 13.2 6 Noroeste 11 Noroeste 0 -- -- 88
2020-03-11 07:00:00 8.5 7 Norte 11 Noroeste 0 -- -- 93
2020-03-11 06:00:00 9.2 6 Norte 9 Norte 0 -- -- 92
2020-03-11 05:00:00 11.3 4 Este 27 Noroeste 0 -- -- 90
2020-03-11 04:00:00 12.1 11 Noroeste 24 Noroeste 0 -- -- 92
2020-03-11 03:00:00 12.5 10 Noroeste 27 Noroeste 0 -- -- 91
2020-03-11 02:00:00 12.6 11 Noroeste 28 Oeste 0 -- -- 89
2020-03-11 01:00:00 12.2 11 Noroeste 21 Noroeste 0 -- -- 91
2020-03-11 00:00:00 12.3 8 Norte 20 Norte 0 -- -- 89
2020-03-10 23:00:00 12.2 5 Norte 14 Norte 0 -- -- 89
2020-03-10 22:00:00 12.1 8 Noroeste 14 Noroeste 0 -- -- 86
2020-03-10 21:00:00 12.1 5 Noroeste 13 Norte 0 -- -- 83
2020-03-10 20:00:00 13.1 6 Norte 15 Norte 0 -- -- 77
2020-03-10 19:00:00 14.2 9 Noroeste 29 Noroeste 0 -- -- 73
2020-03-10 18:00:00 15.5 13 Oeste 27 Noroeste 0 -- -- 65
2020-03-10 17:00:00 17.1 19 Oeste 31 Oeste 0 -- -- 59
2020-03-10 16:00:00 17.2 14 Oeste 27 Oeste 0 -- -- 58
2020-03-10 15:00:00 16.1 8 Sur 17 Sur 0 -- -- 67
2020-03-10 14:00:00 15.8 9 Sur 18 Sur 0 -- -- 68
2020-03-10 13:00:00 16.6 9 Sur 19 Sudeste 0 -- -- 64
2020-03-10 12:00:00 18.1 6 Noroeste 15 Noroeste 0 -- -- 54
2020-03-10 11:00:00 16.8 4 Noroeste 16 Oeste 0 -- -- 57
2020-03-10 10:00:00 14.9 10 Nordeste 16 Este 0 -- -- 67
2020-03-10 09:00:00 13.5 10 Nordeste 18 Nordeste 0 -- -- 72
2020-03-10 08:00:00 12.8 8 Nordeste 23 Nordeste 0 -- -- 71
2020-03-10 07:00:00 11.6 9 Nordeste 32 Nordeste 0 -- -- 72
2020-03-10 06:00:00 11.9 14 Nordeste 34 Nordeste 0 -- -- 72
2020-03-10 05:00:00 11.9 16 Nordeste 39 Norte 0 -- -- 72
2020-03-10 04:00:00 11.8 19 Nordeste 39 Nordeste 0 -- -- 71
2020-03-10 03:00:00 11.8 13 Nordeste 36 Nordeste 0 -- -- 69
2020-03-10 02:00:00 12.4 18 Nordeste 39 Nordeste 0 -- -- 65
2020-03-10 01:00:00 12.7 19 Nordeste 35 Nordeste 0 -- -- 66
2020-03-10 00:00:00 11 6 Nordeste 19 Nordeste 0 -- -- 88